createdAt,value
2018-10-12T00:00:50.521Z,7.60
2018-10-12T00:03:19.252Z,7.37
2018-10-12T00:05:47.942Z,7.73
2018-10-12T00:08:16.585Z,7.83
2018-10-12T00:10:45.201Z,8.67
2018-10-12T00:13:13.891Z,8.17
2018-10-12T00:15:42.563Z,7.33
2018-10-12T00:18:11.192Z,7.87
2018-10-12T00:20:39.801Z,7.83
2018-10-12T00:23:08.476Z,7.87
2018-10-12T00:25:37.126Z,7.67
2018-10-12T00:28:05.809Z,7.43
2018-10-12T00:30:34.455Z,7.43
2018-10-12T00:33:03.176Z,6.63
2018-10-12T00:35:31.893Z,6.83
2018-10-12T00:38:00.542Z,7.00
2018-10-12T00:40:29.198Z,7.20
2018-10-12T00:42:57.931Z,7.33
2018-10-12T00:45:26.519Z,7.17
2018-10-12T00:47:59.282Z,7.97
2018-10-12T00:50:29.107Z,7.60
2018-10-12T00:52:58.149Z,7.07
2018-10-12T00:55:28.062Z,7.97
2018-10-12T00:57:56.704Z,7.77
2018-10-12T01:00:26.592Z,8.17
2018-10-12T01:02:56.057Z,9.30
2018-10-12T01:05:24.731Z,8.23
2018-10-12T01:07:54.309Z,8.37
2018-10-12T01:10:22.920Z,8.03
2018-10-12T01:12:51.717Z,7.60
2018-10-12T01:15:20.604Z,8.47
2018-10-12T01:17:49.382Z,9.00
2018-10-12T01:20:18.032Z,8.23
2018-10-12T01:22:47.063Z,7.40
2018-10-12T01:25:22.480Z,8.27
2018-10-12T01:27:51.357Z,7.90
2018-10-12T01:30:20.049Z,7.90
2018-10-12T01:32:54.893Z,7.77
2018-10-12T01:35:24.211Z,7.37
2018-10-12T01:37:52.878Z,7.60
2018-10-12T01:40:22.017Z,8.17
2018-10-12T01:42:50.690Z,7.87
2018-10-12T01:45:20.053Z,7.53
2018-10-12T01:47:48.832Z,6.90
2018-10-12T01:50:17.581Z,7.37
2018-10-12T01:52:46.370Z,7.80
2018-10-12T01:55:15.140Z,7.13
2018-10-12T01:57:43.941Z,7.00
2018-10-12T02:00:12.692Z,7.70
2018-10-12T02:02:41.698Z,7.30
2018-10-12T02:05:10.693Z,7.57
2018-10-12T02:07:39.420Z,7.20
2018-10-12T02:10:08.310Z,7.07
2018-10-12T02:12:36.961Z,6.93
2018-10-12T02:15:06.800Z,7.13
2018-10-12T02:17:35.541Z,6.47
2018-10-12T02:20:04.816Z,8.00
2018-10-12T02:22:33.564Z,8.07
2018-10-12T02:25:02.254Z,7.27
2018-10-12T02:27:30.952Z,7.50
2018-10-12T02:30:00.073Z,7.57
2018-10-12T02:32:28.861Z,7.73
2018-10-12T02:34:57.720Z,7.03
2018-10-12T02:37:26.498Z,7.90
2018-10-12T02:39:55.212Z,7.47
2018-10-12T02:42:23.915Z,7.90
2018-10-12T02:44:52.601Z,8.13
2018-10-12T02:47:21.566Z,7.43
2018-10-12T02:49:50.601Z,8.03
2018-10-12T02:52:19.453Z,8.77
2018-10-12T02:54:48.420Z,7.37
2018-10-12T02:57:17.133Z,7.30
2018-10-12T02:59:45.735Z,7.60
2018-10-12T03:02:14.393Z,6.87
2018-10-12T03:04:43.094Z,7.20
2018-10-12T03:07:11.762Z,7.33
2018-10-12T03:09:40.441Z,6.73
2018-10-12T03:12:09.061Z,6.43
2018-10-12T03:14:37.776Z,6.80
2018-10-12T03:17:06.468Z,6.87
2018-10-12T03:19:35.069Z,7.27
2018-10-12T03:22:03.700Z,7.00
2018-10-12T03:24:32.310Z,6.67
2018-10-12T03:27:00.998Z,7.33
2018-10-12T03:29:29.670Z,7.77
2018-10-12T03:31:58.381Z,7.13
2018-10-12T03:34:27.117Z,8.27
2018-10-12T03:36:55.712Z,8.03
2018-10-12T03:39:24.349Z,7.43
2018-10-12T03:41:53.025Z,7.67
2018-10-12T03:44:21.746Z,8.50
2018-10-12T03:46:50.411Z,7.97
2018-10-12T03:49:19.109Z,7.50
2018-10-12T03:51:47.772Z,6.93
2018-10-12T03:54:16.461Z,7.67
2018-10-12T03:56:45.174Z,8.20
2018-10-12T03:59:13.842Z,7.73
2018-10-12T04:01:42.546Z,7.23
2018-10-12T04:04:11.177Z,6.80
2018-10-12T04:06:39.929Z,6.90
2018-10-12T04:09:09.097Z,7.67
2018-10-12T04:11:37.772Z,7.07
2018-10-12T04:14:06.338Z,6.70
2018-10-12T04:16:34.990Z,6.67
2018-10-12T04:19:03.708Z,6.23
2018-10-12T04:21:32.371Z,6.90
2018-10-12T04:24:00.986Z,6.27
2018-10-12T04:26:29.616Z,6.43
2018-10-12T04:28:58.269Z,6.63
2018-10-12T04:31:26.929Z,6.97
2018-10-12T04:33:55.631Z,6.63
2018-10-12T04:36:24.322Z,7.23
2018-10-12T04:39:04.945Z,6.77
2018-10-12T04:41:33.601Z,6.97
2018-10-12T04:44:03.539Z,6.63
2018-10-12T04:46:38.784Z,6.80
2018-10-12T04:49:08.842Z,7.17
2018-10-12T04:51:40.609Z,7.20
2018-10-12T04:54:09.395Z,6.90
2018-10-12T04:56:38.092Z,7.20
2018-10-12T04:59:06.768Z,7.13
2018-10-12T05:01:35.544Z,7.03
2018-10-12T05:04:04.392Z,7.17
2018-10-12T05:06:33.213Z,7.20
2018-10-12T05:09:02.054Z,7.37
2018-10-12T05:11:30.827Z,6.87
2018-10-12T05:13:59.611Z,7.37
2018-10-12T05:16:29.244Z,7.53
2018-10-12T05:18:58.089Z,8.10
2018-10-12T05:21:26.924Z,7.13
2018-10-12T05:23:55.652Z,7.50
2018-10-12T05:26:24.438Z,7.33
2018-10-12T05:28:53.267Z,6.97
2018-10-12T05:31:22.067Z,7.07
2018-10-12T05:33:50.773Z,6.83
2018-10-12T05:36:19.481Z,7.20
2018-10-12T05:38:48.134Z,6.60
2018-10-12T05:41:17.632Z,6.23
2018-10-12T05:43:46.601Z,6.47
2018-10-12T05:46:18.297Z,7.27
2018-10-12T05:48:58.198Z,7.00
2018-10-12T05:51:26.981Z,6.80
2018-10-12T05:53:55.732Z,7.67
2018-10-12T05:56:31.291Z,8.00
2018-10-12T05:59:00.966Z,6.93
2018-10-12T06:01:29.948Z,7.37
2018-10-12T06:03:59.245Z,6.10
2018-10-12T06:06:28.342Z,5.97
2018-10-12T06:08:57.077Z,6.30
2018-10-12T06:11:25.987Z,6.37
2018-10-12T06:13:54.569Z,6.80
2018-10-12T06:16:23.445Z,6.87
2018-10-12T06:18:52.407Z,5.83
2018-10-12T06:21:21.133Z,6.00
2018-10-12T06:23:59.650Z,6.30
2018-10-12T06:26:28.378Z,6.10
2018-10-12T06:28:57.105Z,6.50
2018-10-12T06:31:25.846Z,6.20
2018-10-12T06:33:54.605Z,6.13
2018-10-12T06:36:23.269Z,6.00
2018-10-12T06:38:51.978Z,6.37
2018-10-12T06:41:20.762Z,5.73
2018-10-12T06:43:49.461Z,6.40
2018-10-12T06:46:18.183Z,5.47
2018-10-12T06:48:47.553Z,6.33
2018-10-12T06:51:16.193Z,5.87
2018-10-12T06:53:45.614Z,5.37
2018-10-12T06:56:14.398Z,5.77
2018-10-12T06:58:43.392Z,5.83
2018-10-12T07:01:12.406Z,6.10
2018-10-12T07:03:41.683Z,6.07
2018-10-12T07:06:10.752Z,5.60
2018-10-12T07:08:39.489Z,5.93
2018-10-12T07:11:08.597Z,6.40
2018-10-12T07:13:37.437Z,6.53
2018-10-12T07:16:06.131Z,6.33
2018-10-12T07:18:34.748Z,6.40
2018-10-12T07:21:03.501Z,5.97
2018-10-12T07:23:32.175Z,5.80
2018-10-12T07:26:00.851Z,6.00
2018-10-12T07:28:29.622Z,6.40
2018-10-12T07:30:58.370Z,5.87
2018-10-12T07:33:27.018Z,5.87
2018-10-12T07:35:55.697Z,5.87
2018-10-12T07:38:24.399Z,5.60
2018-10-12T07:40:53.121Z,5.93
2018-10-12T07:43:21.783Z,5.80
2018-10-12T07:45:50.466Z,5.43
2018-10-12T07:48:19.264Z,5.73
2018-10-12T07:50:47.924Z,5.97
2018-10-12T07:53:16.622Z,6.10
2018-10-12T07:55:45.308Z,5.80
2018-10-12T07:58:14.081Z,6.70
2018-10-12T08:00:42.899Z,6.83
2018-10-12T08:03:11.377Z,6.93
2018-10-12T08:05:40.026Z,6.00
2018-10-12T08:08:08.701Z,7.13
2018-10-12T08:10:37.409Z,6.40
2018-10-12T08:13:06.184Z,7.40
2018-10-12T08:15:34.979Z,6.87
2018-10-12T08:18:03.685Z,5.87
2018-10-12T08:20:32.388Z,5.83
2018-10-12T08:23:01.013Z,5.90
2018-10-12T08:25:29.723Z,7.07
2018-10-12T08:27:58.391Z,6.30
2018-10-12T08:30:27.001Z,6.40
2018-10-12T08:32:55.717Z,6.47
2018-10-12T08:35:24.433Z,6.47
2018-10-12T08:37:53.066Z,5.97
2018-10-12T08:40:21.660Z,5.97
2018-10-12T08:42:50.315Z,5.30
2018-10-12T08:45:18.941Z,6.23
2018-10-12T08:47:47.555Z,6.40
2018-10-12T08:50:16.208Z,6.93
2018-10-12T08:52:44.852Z,6.60
2018-10-12T08:55:13.542Z,6.00
2018-10-12T08:57:42.213Z,5.60
2018-10-12T09:00:10.880Z,4.30
2018-10-12T09:02:39.456Z,4.27
2018-10-12T09:05:08.154Z,4.80
2018-10-12T09:07:36.771Z,4.33
2018-10-12T09:10:06.170Z,4.00
2018-10-12T09:12:34.890Z,3.93
2018-10-12T09:15:03.656Z,3.97
2018-10-12T09:17:32.372Z,2.80
2018-10-12T09:20:01.070Z,2.50
2018-10-12T09:22:29.682Z,2.80
2018-10-12T09:24:58.409Z,2.63
2018-10-12T09:27:27.157Z,2.80
2018-10-12T09:29:55.759Z,2.70
2018-10-12T09:32:24.352Z,2.87
2018-10-12T09:34:53.093Z,3.70
2018-10-12T09:37:21.775Z,2.70
2018-10-12T09:39:50.468Z,2.70
2018-10-12T09:42:19.129Z,2.60
2018-10-12T09:44:47.849Z,2.50
2018-10-12T09:47:16.544Z,2.70
2018-10-12T09:49:45.383Z,2.30
2018-10-12T09:52:14.173Z,2.30
2018-10-12T09:54:42.928Z,2.17
2018-10-12T09:57:16.809Z,2.27
2018-10-12T09:59:45.517Z,1.60
2018-10-12T10:02:19.483Z,1.80
2018-10-12T10:04:48.284Z,2.20
2018-10-12T10:07:17.084Z,2.30
2018-10-12T10:09:45.770Z,2.13
2018-10-12T10:12:14.517Z,1.80
2018-10-12T10:14:43.343Z,1.93
2018-10-12T10:17:12.013Z,1.80
2018-10-12T10:19:40.670Z,2.13
2018-10-12T10:22:09.373Z,1.90
2018-10-12T10:24:38.203Z,1.77
2018-10-12T10:27:07.526Z,2.10
2018-10-12T10:29:36.422Z,1.67
2018-10-12T10:32:05.294Z,1.53
2018-10-12T10:34:34.054Z,1.63
2018-10-12T10:37:02.824Z,1.63
2018-10-12T10:39:31.589Z,1.93
2018-10-12T10:42:00.239Z,2.00
2018-10-12T10:44:28.913Z,1.57
2018-10-12T10:46:57.636Z,1.33
2018-10-12T10:49:26.292Z,1.37
2018-10-12T10:51:55.000Z,1.57
2018-10-12T10:54:23.602Z,1.57
2018-10-12T10:56:54.964Z,1.70
2018-10-12T10:59:23.770Z,1.37
2018-10-12T11:01:52.578Z,1.60
2018-10-12T11:04:21.319Z,1.73
2018-10-12T11:06:50.387Z,1.37
2018-10-12T11:09:19.434Z,1.40
2018-10-12T11:11:48.323Z,1.27
2018-10-12T11:14:18.315Z,1.53
2018-10-12T11:16:47.029Z,1.60
2018-10-12T11:19:15.756Z,1.30
2018-10-12T11:21:44.433Z,1.30
2018-10-12T11:24:13.276Z,1.57
2018-10-12T11:26:42.034Z,1.43
2018-10-12T11:29:10.799Z,1.60
2018-10-12T11:31:39.751Z,1.90
2018-10-12T11:34:08.381Z,1.60
2018-10-12T11:36:37.346Z,2.17
2018-10-12T11:39:10.369Z,1.90
2018-10-12T11:41:39.063Z,1.80
2018-10-12T11:44:07.709Z,1.50
2018-10-12T11:46:36.389Z,1.90
2018-10-12T11:49:05.137Z,1.83
2018-10-12T11:51:33.758Z,1.77
2018-10-12T11:54:02.370Z,2.30
2018-10-12T11:56:31.047Z,1.93
2018-10-12T11:58:59.672Z,1.67
2018-10-12T12:01:28.281Z,1.83
2018-10-12T12:03:56.934Z,1.70
2018-10-12T12:06:25.590Z,1.80
2018-10-12T12:08:54.223Z,1.53
2018-10-12T12:11:22.786Z,1.90
2018-10-12T12:13:51.384Z,1.60
2018-10-12T12:16:19.960Z,1.60
2018-10-12T12:18:48.581Z,1.97
2018-10-12T12:21:17.313Z,2.53
2018-10-12T12:23:46.296Z,1.90
2018-10-12T12:26:14.893Z,1.60
2018-10-12T12:28:43.544Z,1.70
2018-10-12T12:31:12.202Z,1.70
2018-10-12T12:33:40.856Z,1.97
2018-10-12T12:36:11.667Z,1.80
2018-10-12T12:38:40.103Z,1.93
2018-10-12T12:41:08.722Z,1.67
2018-10-12T12:43:37.339Z,1.77
2018-10-12T12:46:06.000Z,1.50
2018-10-12T12:48:34.872Z,1.70
2018-10-12T12:51:03.402Z,1.80
2018-10-12T12:53:32.156Z,1.60
2018-10-12T12:56:00.913Z,1.63
2018-10-12T12:58:29.569Z,1.60
2018-10-12T13:00:58.340Z,1.90
2018-10-12T13:03:27.068Z,1.77
2018-10-12T13:05:55.834Z,1.60
2018-10-12T13:08:24.585Z,1.50
2018-10-12T13:10:53.233Z,1.67
2018-10-12T13:13:22.161Z,1.50
2018-10-12T13:15:50.963Z,1.60
2018-10-12T13:18:19.586Z,1.80
2018-10-12T13:20:48.273Z,1.50
2018-10-12T13:23:16.869Z,1.60
2018-10-12T13:25:45.603Z,1.60
2018-10-12T13:28:14.206Z,1.50
2018-10-12T13:30:42.906Z,1.80
2018-10-12T13:33:11.553Z,1.60
2018-10-12T13:35:40.256Z,1.63
2018-10-12T13:38:08.925Z,1.93
2018-10-12T13:40:37.737Z,1.57
2018-10-12T13:43:06.495Z,1.63
2018-10-12T13:45:35.196Z,1.70
2018-10-12T13:48:04.048Z,1.93
2018-10-12T13:50:32.770Z,1.53
2018-10-12T13:53:01.461Z,1.43
2018-10-12T13:55:30.066Z,1.70
2018-10-12T13:57:58.721Z,1.63
2018-10-12T14:00:27.465Z,1.50
2018-10-12T14:02:56.107Z,1.67
2018-10-12T14:05:24.790Z,1.97
2018-10-12T14:07:53.608Z,1.90
2018-10-12T14:10:22.393Z,1.97
2018-10-12T14:12:51.174Z,1.90
2018-10-12T14:15:19.948Z,1.80
2018-10-12T14:17:48.629Z,1.80
2018-10-12T14:20:17.281Z,1.77
2018-10-12T14:22:45.975Z,2.17
2018-10-12T14:25:14.744Z,1.73
2018-10-12T14:27:43.434Z,1.60
2018-10-12T14:30:12.117Z,1.60
2018-10-12T14:32:41.235Z,1.67
2018-10-12T14:35:10.119Z,1.80
2018-10-12T14:37:38.830Z,1.90
2018-10-12T14:40:07.596Z,1.80
2018-10-12T14:42:36.317Z,1.80
2018-10-12T14:45:05.062Z,1.93
2018-10-12T14:47:34.278Z,1.53
2018-10-12T14:50:02.990Z,1.70
2018-10-12T14:52:32.312Z,1.80
2018-10-12T14:55:00.782Z,1.83
2018-10-12T14:57:30.228Z,2.70
2018-10-12T14:59:58.652Z,1.70
2018-10-12T15:02:27.592Z,1.73
2018-10-12T15:04:56.657Z,2.00
2018-10-12T15:07:25.912Z,1.67
2018-10-12T15:09:55.417Z,1.60
2018-10-12T15:12:24.997Z,1.90
2018-10-12T15:15:04.633Z,1.80
2018-10-12T15:17:35.501Z,1.50
2018-10-12T15:20:04.269Z,1.60
2018-10-12T15:22:36.708Z,1.67
2018-10-12T15:25:16.833Z,1.80
2018-10-12T15:27:45.813Z,1.67
2018-10-12T15:30:14.906Z,2.10
2018-10-12T15:32:43.559Z,1.90
2018-10-12T15:35:12.388Z,1.93
2018-10-12T15:37:42.008Z,1.90
2018-10-12T15:40:10.720Z,2.13
2018-10-12T15:42:39.696Z,1.80
2018-10-12T15:45:08.429Z,1.90
2018-10-12T15:47:37.028Z,1.73
2018-10-12T15:50:06.026Z,1.80
2018-10-12T15:52:34.716Z,1.70
2018-10-12T15:55:03.395Z,2.03
2018-10-12T15:57:32.656Z,1.73
2018-10-12T16:00:01.269Z,2.30
2018-10-12T16:02:30.043Z,1.47
2018-10-12T16:04:58.748Z,1.80
2018-10-12T16:07:27.400Z,2.07
2018-10-12T16:09:56.105Z,1.80
2018-10-12T16:12:25.144Z,1.90
2018-10-12T16:14:53.859Z,1.90
2018-10-12T16:17:22.368Z,1.90
2018-10-12T16:19:51.111Z,2.00
2018-10-12T16:22:20.731Z,2.70
2018-10-12T16:25:00.811Z,2.13
2018-10-12T16:27:29.669Z,1.90
2018-10-12T16:29:58.266Z,2.17
2018-10-12T16:32:26.919Z,2.20
2018-10-12T16:34:55.634Z,1.93
2018-10-12T16:37:24.229Z,2.23
2018-10-12T16:39:52.870Z,2.00
2018-10-12T16:42:21.522Z,1.80
2018-10-12T16:44:54.892Z,2.87
2018-10-12T16:47:23.519Z,2.53
2018-10-12T16:49:52.232Z,2.40
2018-10-12T16:52:20.976Z,2.83
2018-10-12T16:54:49.719Z,6.37
2018-10-12T16:57:22.683Z,3.83
2018-10-12T16:59:51.438Z,2.80
2018-10-12T17:02:20.168Z,2.50
2018-10-12T17:04:48.954Z,2.57
2018-10-12T17:07:17.726Z,2.20
2018-10-12T17:09:46.451Z,2.43
2018-10-12T17:12:15.093Z,2.53
2018-10-12T17:14:43.859Z,2.30
2018-10-12T17:17:12.549Z,2.70
2018-10-12T17:19:41.264Z,2.80
2018-10-12T17:22:09.857Z,2.60
2018-10-12T17:24:38.513Z,2.93
2018-10-12T17:27:07.318Z,2.77
2018-10-12T17:29:36.126Z,2.80
2018-10-12T17:32:04.861Z,2.60
2018-10-12T17:34:33.833Z,2.80
2018-10-12T17:37:02.452Z,2.40
2018-10-12T17:39:31.138Z,2.17
2018-10-12T17:42:09.253Z,2.40
2018-10-12T17:44:37.884Z,2.63
2018-10-12T17:47:06.491Z,2.53
2018-10-12T17:49:35.545Z,2.73
2018-10-12T17:52:04.243Z,2.80
2018-10-12T17:54:33.059Z,3.43
2018-10-12T17:57:02.630Z,2.83
2018-10-12T17:59:31.459Z,2.53
2018-10-12T18:02:00.230Z,2.57
2018-10-12T18:04:28.918Z,4.00
2018-10-12T18:06:57.663Z,4.70
2018-10-12T18:09:26.550Z,3.40
2018-10-12T18:11:55.886Z,3.70
2018-10-12T18:14:24.582Z,2.93
2018-10-12T18:16:53.401Z,3.27
2018-10-12T18:19:22.459Z,3.10
2018-10-12T18:21:51.107Z,3.40
2018-10-12T18:24:20.170Z,2.97
2018-10-12T18:26:48.843Z,3.00
2018-10-12T18:29:17.435Z,3.40
2018-10-12T18:31:46.129Z,3.13
2018-10-12T18:34:15.112Z,3.10
2018-10-12T18:36:43.852Z,3.50
2018-10-12T18:39:12.615Z,3.20
2018-10-12T18:41:41.417Z,3.37
2018-10-12T18:44:10.246Z,3.20
2018-10-12T18:46:39.330Z,3.37
2018-10-12T18:49:08.324Z,3.40
2018-10-12T18:51:37.137Z,3.20
2018-10-12T18:54:06.185Z,3.70
2018-10-12T18:56:34.822Z,4.20
2018-10-12T18:59:03.389Z,3.70
2018-10-12T19:01:32.105Z,3.50
2018-10-12T19:04:00.645Z,3.80
2018-10-12T19:06:29.745Z,3.10
2018-10-12T19:08:58.436Z,3.77
2018-10-12T19:11:27.442Z,3.50
2018-10-12T19:13:56.222Z,4.03
2018-10-12T19:16:24.953Z,3.60
2018-10-12T19:18:53.956Z,3.47
2018-10-12T19:21:22.602Z,3.43
2018-10-12T19:23:51.470Z,4.93
2018-10-12T19:26:20.425Z,4.37
2018-10-12T19:28:49.511Z,6.07
2018-10-12T19:31:18.404Z,4.90
2018-10-12T19:33:47.100Z,4.27
2018-10-12T19:36:15.896Z,4.90
2018-10-12T19:38:44.878Z,4.30
2018-10-12T19:41:13.851Z,4.50
2018-10-12T19:43:42.642Z,4.50
2018-10-12T19:46:11.349Z,3.97
2018-10-12T19:48:40.254Z,4.20
2018-10-12T19:51:09.064Z,3.80
2018-10-12T19:53:37.802Z,3.77
2018-10-12T19:56:07.021Z,3.87
2018-10-12T19:58:35.933Z,3.87
2018-10-12T20:01:04.622Z,3.47
2018-10-12T20:03:33.356Z,3.97
2018-10-12T20:06:02.176Z,3.50
2018-10-12T20:08:30.949Z,4.00
2018-10-12T20:10:59.705Z,4.00
2018-10-12T20:13:28.341Z,3.83
2018-10-12T20:15:57.005Z,3.27
2018-10-12T20:18:25.831Z,3.47
2018-10-12T20:20:54.577Z,4.00
2018-10-12T20:23:23.271Z,3.93
2018-10-12T20:25:58.529Z,4.37
2018-10-12T20:28:27.250Z,3.83
2018-10-12T20:30:55.967Z,3.60
2018-10-12T20:33:24.712Z,3.87
2018-10-12T20:35:53.417Z,3.97
2018-10-12T20:38:22.124Z,3.90
2018-10-12T20:40:50.873Z,3.70
2018-10-12T20:43:19.673Z,4.10
2018-10-12T20:45:48.317Z,4.30
2018-10-12T20:48:17.004Z,4.27
2018-10-12T20:50:45.723Z,3.83
2018-10-12T20:53:14.671Z,5.93
2018-10-12T20:55:45.625Z,4.87
2018-10-12T20:58:18.346Z,4.23
2018-10-12T21:00:47.617Z,4.23
2018-10-12T21:03:17.180Z,4.57
2018-10-12T21:05:46.102Z,4.27
2018-10-12T21:08:15.192Z,4.50
2018-10-12T21:10:43.937Z,4.17
2018-10-12T21:13:12.646Z,4.53
2018-10-12T21:15:41.576Z,4.00
2018-10-12T21:18:10.415Z,3.97
2018-10-12T21:20:40.381Z,4.00
2018-10-12T21:23:09.077Z,4.13
2018-10-12T21:25:37.888Z,4.50
2018-10-12T21:28:06.578Z,4.97
2018-10-12T21:30:35.285Z,4.90
2018-10-12T21:33:04.037Z,4.23
2018-10-12T21:35:32.761Z,4.50
2018-10-12T21:38:01.613Z,4.83
2018-10-12T21:40:30.434Z,4.20
2018-10-12T21:42:59.140Z,4.80
2018-10-12T21:45:27.852Z,4.27
2018-10-12T21:47:57.384Z,4.10
2018-10-12T21:50:26.223Z,4.10
2018-10-12T21:52:54.835Z,4.53
2018-10-12T21:55:23.538Z,3.63
2018-10-12T21:57:52.218Z,3.60
2018-10-12T22:00:21.181Z,3.87
2018-10-12T22:02:49.909Z,3.90
2018-10-12T22:05:18.595Z,4.33
2018-10-12T22:07:47.272Z,4.10
2018-10-12T22:10:15.967Z,3.80
2018-10-12T22:12:44.641Z,4.10
2018-10-12T22:15:13.396Z,4.33
2018-10-12T22:17:42.133Z,4.07
2018-10-12T22:20:10.922Z,3.97
2018-10-12T22:22:39.615Z,3.67
2018-10-12T22:25:08.388Z,4.17
2018-10-12T22:27:37.073Z,3.97
2018-10-12T22:30:06.821Z,3.80
2018-10-12T22:32:35.597Z,3.90
2018-10-12T22:35:04.321Z,3.40
2018-10-12T22:37:33.035Z,3.80
2018-10-12T22:40:01.813Z,3.93
2018-10-12T22:42:30.518Z,4.53
2018-10-12T22:44:59.236Z,3.73
2018-10-12T22:47:27.885Z,4.20
2018-10-12T22:49:56.635Z,3.83
2018-10-12T22:52:25.413Z,3.90
2018-10-12T22:54:54.162Z,3.73
2018-10-12T22:57:22.787Z,4.07
2018-10-12T22:59:51.425Z,4.00
2018-10-12T23:02:20.052Z,3.53
2018-10-12T23:04:48.806Z,4.37
2018-10-12T23:07:17.522Z,3.43
2018-10-12T23:09:46.242Z,3.90
2018-10-12T23:12:14.933Z,3.90
2018-10-12T23:14:43.561Z,3.90
2018-10-12T23:17:12.197Z,3.30
2018-10-12T23:19:40.869Z,3.60
2018-10-12T23:22:09.516Z,3.63
2018-10-12T23:24:38.177Z,4.57
2018-10-12T23:27:07.193Z,3.63
2018-10-12T23:29:35.814Z,4.00
2018-10-12T23:32:04.461Z,3.43
2018-10-12T23:34:33.211Z,4.03
2018-10-12T23:37:01.883Z,3.70
2018-10-12T23:39:30.531Z,4.13
2018-10-12T23:41:59.118Z,4.03
2018-10-12T23:44:27.778Z,3.90
2018-10-12T23:46:56.462Z,4.13
2018-10-12T23:49:25.115Z,3.83
2018-10-12T23:51:53.763Z,4.30
2018-10-12T23:54:22.485Z,3.63
2018-10-12T23:56:51.232Z,4.03
2018-10-12T23:59:19.815Z,4.10
